sensor_id;sensor_type;location;lat;lon;timestamp;P1;durP1;ratioP1;P2;durP2;ratioP2
64387;SDS011;50709;52.648;4.764;2022-10-14T00:01:20;13.73;;;8.00;;
64387;SDS011;50709;52.648;4.764;2022-10-14T00:03:47;15.00;;;8.23;;
64387;SDS011;50709;52.648;4.764;2022-10-14T00:06:14;12.93;;;8.20;;
64387;SDS011;50709;52.648;4.764;2022-10-14T00:08:42;11.73;;;8.50;;
64387;SDS011;50709;52.648;4.764;2022-10-14T00:11:12;14.05;;;8.40;;
64387;SDS011;50709;52.648;4.764;2022-10-14T00:13:39;12.60;;;8.32;;
64387;SDS011;50709;52.648;4.764;2022-10-14T00:16:05;11.40;;;7.97;;
64387;SDS011;50709;52.648;4.764;2022-10-14T00:18:38;12.00;;;8.70;;
64387;SDS011;50709;52.648;4.764;2022-10-14T00:21:03;11.82;;;7.97;;
64387;SDS011;50709;52.648;4.764;2022-10-14T00:23:29;12.80;;;8.70;;
64387;SDS011;50709;52.648;4.764;2022-10-14T00:25:54;12.43;;;8.07;;
64387;SDS011;50709;52.648;4.764;2022-10-14T00:28:20;10.27;;;7.35;;
64387;SDS011;50709;52.648;4.764;2022-10-14T00:30:54;10.90;;;7.78;;
64387;SDS011;50709;52.648;4.764;2022-10-14T00:33:21;10.65;;;7.75;;
64387;SDS011;50709;52.648;4.764;2022-10-14T00:35:53;12.18;;;9.18;;
64387;SDS011;50709;52.648;4.764;2022-10-14T00:38:23;11.93;;;8.93;;
64387;SDS011;50709;52.648;4.764;2022-10-14T00:40:48;13.77;;;9.15;;
64387;SDS011;50709;52.648;4.764;2022-10-14T00:43:14;16.23;;;10.70;;
64387;SDS011;50709;52.648;4.764;2022-10-14T00:45:40;14.48;;;9.88;;
64387;SDS011;50709;52.648;4.764;2022-10-14T00:48:06;15.25;;;10.10;;
64387;SDS011;50709;52.648;4.764;2022-10-14T00:50:31;17.08;;;11.32;;
64387;SDS011;50709;52.648;4.764;2022-10-14T00:52:58;13.63;;;9.43;;
64387;SDS011;50709;52.648;4.764;2022-10-14T00:55:23;13.38;;;9.52;;
64387;SDS011;50709;52.648;4.764;2022-10-14T00:57:50;12.98;;;8.77;;
64387;SDS011;50709;52.648;4.764;2022-10-14T01:00:16;13.93;;;8.90;;
64387;SDS011;50709;52.648;4.764;2022-10-14T01:02:43;14.02;;;9.48;;
64387;SDS011;50709;52.648;4.764;2022-10-14T01:05:10;12.50;;;8.80;;
64387;SDS011;50709;52.648;4.764;2022-10-14T01:07:42;13.25;;;9.32;;
64387;SDS011;50709;52.648;4.764;2022-10-14T01:13:42;13.20;;;9.40;;
64387;SDS011;50709;52.648;4.764;2022-10-14T01:16:23;13.70;;;9.65;;
64387;SDS011;50709;52.648;4.764;2022-10-14T01:23:42;12.50;;;8.88;;
64387;SDS011;50709;52.648;4.764;2022-10-14T01:31:32;13.45;;;8.35;;
64387;SDS011;50709;52.648;4.764;2022-10-14T01:34:04;13.63;;;9.40;;
64387;SDS011;50709;52.648;4.764;2022-10-14T01:39:23;12.23;;;8.50;;
64387;SDS011;50709;52.648;4.764;2022-10-14T01:41:52;12.07;;;8.40;;
64387;SDS011;50709;52.648;4.764;2022-10-14T01:44:26;13.77;;;9.23;;
64387;SDS011;50709;52.648;4.764;2022-10-14T01:46:55;13.73;;;8.60;;
64387;SDS011;50709;52.648;4.764;2022-10-14T01:49:42;13.90;;;8.55;;
64387;SDS011;50709;52.648;4.764;2022-10-14T01:52:13;13.90;;;8.48;;
64387;SDS011;50709;52.648;4.764;2022-10-14T01:54:47;12.73;;;8.93;;
64387;SDS011;50709;52.648;4.764;2022-10-14T01:57:18;13.25;;;8.93;;
64387;SDS011;50709;52.648;4.764;2022-10-14T01:59:47;13.38;;;8.82;;
64387;SDS011;50709;52.648;4.764;2022-10-14T02:02:16;13.77;;;8.88;;
64387;SDS011;50709;52.648;4.764;2022-10-14T02:04:41;14.73;;;9.48;;
64387;SDS011;50709;52.648;4.764;2022-10-14T02:07:09;12.35;;;8.60;;
64387;SDS011;50709;52.648;4.764;2022-10-14T02:17:47;19.15;;;11.45;;
64387;SDS011;50709;52.648;4.764;2022-10-14T02:22:52;18.75;;;11.45;;
64387;SDS011;50709;52.648;4.764;2022-10-14T02:25:32;17.92;;;10.60;;
64387;SDS011;50709;52.648;4.764;2022-10-14T02:28:00;20.75;;;12.82;;
64387;SDS011;50709;52.648;4.764;2022-10-14T02:30:28;17.38;;;10.38;;
64387;SDS011;50709;52.648;4.764;2022-10-14T02:32:56;16.58;;;11.02;;
64387;SDS011;50709;52.648;4.764;2022-10-14T02:35:25;17.67;;;10.80;;
64387;SDS011;50709;52.648;4.764;2022-10-14T02:37:51;19.55;;;11.70;;
64387;SDS011;50709;52.648;4.764;2022-10-14T02:40:22;18.73;;;11.85;;
64387;SDS011;50709;52.648;4.764;2022-10-14T02:42:53;16.30;;;10.73;;
64387;SDS011;50709;52.648;4.764;2022-10-14T02:45:18;18.08;;;10.50;;
64387;SDS011;50709;52.648;4.764;2022-10-14T02:47:44;16.05;;;11.07;;
64387;SDS011;50709;52.648;4.764;2022-10-14T02:50:10;14.18;;;9.52;;
64387;SDS011;50709;52.648;4.764;2022-10-14T02:52:36;12.98;;;9.63;;
64387;SDS011;50709;52.648;4.764;2022-10-14T02:55:01;13.30;;;8.52;;
64387;SDS011;50709;52.648;4.764;2022-10-14T02:57:27;12.32;;;8.85;;
64387;SDS011;50709;52.648;4.764;2022-10-14T02:59:52;12.55;;;9.13;;
64387;SDS011;50709;52.648;4.764;2022-10-14T03:02:18;14.50;;;9.70;;
64387;SDS011;50709;52.648;4.764;2022-10-14T03:04:43;14.52;;;8.65;;
64387;SDS011;50709;52.648;4.764;2022-10-14T03:07:08;11.60;;;8.75;;
64387;SDS011;50709;52.648;4.764;2022-10-14T03:09:34;12.48;;;8.70;;
64387;SDS011;50709;52.648;4.764;2022-10-14T03:11:59;13.80;;;8.55;;
64387;SDS011;50709;52.648;4.764;2022-10-14T03:14:25;12.50;;;8.25;;
64387;SDS011;50709;52.648;4.764;2022-10-14T03:16:50;12.40;;;8.93;;
64387;SDS011;50709;52.648;4.764;2022-10-14T03:19:16;12.25;;;8.77;;
64387;SDS011;50709;52.648;4.764;2022-10-14T03:21:41;13.25;;;9.00;;
64387;SDS011;50709;52.648;4.764;2022-10-14T03:24:07;12.20;;;7.82;;
64387;SDS011;50709;52.648;4.764;2022-10-14T03:26:33;12.27;;;8.85;;
64387;SDS011;50709;52.648;4.764;2022-10-14T03:28:59;13.35;;;8.38;;
64387;SDS011;50709;52.648;4.764;2022-10-14T03:31:24;12.45;;;8.88;;
64387;SDS011;50709;52.648;4.764;2022-10-14T03:33:49;14.05;;;8.60;;
64387;SDS011;50709;52.648;4.764;2022-10-14T03:36:15;11.95;;;8.27;;
64387;SDS011;50709;52.648;4.764;2022-10-14T03:38:40;12.40;;;8.27;;
64387;SDS011;50709;52.648;4.764;2022-10-14T03:41:05;14.05;;;8.65;;
64387;SDS011;50709;52.648;4.764;2022-10-14T03:43:31;12.02;;;7.78;;
64387;SDS011;50709;52.648;4.764;2022-10-14T03:45:56;14.20;;;8.68;;
64387;SDS011;50709;52.648;4.764;2022-10-14T03:48:21;13.77;;;9.18;;
64387;SDS011;50709;52.648;4.764;2022-10-14T03:50:47;15.35;;;9.02;;
64387;SDS011;50709;52.648;4.764;2022-10-14T03:53:12;13.50;;;9.25;;
64387;SDS011;50709;52.648;4.764;2022-10-14T03:55:38;15.85;;;9.52;;
64387;SDS011;50709;52.648;4.764;2022-10-14T03:58:04;16.10;;;9.20;;
64387;SDS011;50709;52.648;4.764;2022-10-14T04:00:30;16.17;;;10.60;;
64387;SDS011;50709;52.648;4.764;2022-10-14T04:02:55;17.67;;;10.27;;
64387;SDS011;50709;52.648;4.764;2022-10-14T04:05:21;15.52;;;10.13;;
64387;SDS011;50709;52.648;4.764;2022-10-14T04:07:46;16.58;;;10.65;;
64387;SDS011;50709;52.648;4.764;2022-10-14T04:10:11;15.43;;;9.55;;
64387;SDS011;50709;52.648;4.764;2022-10-14T04:12:37;17.95;;;11.02;;
64387;SDS011;50709;52.648;4.764;2022-10-14T04:15:04;16.02;;;10.55;;
64387;SDS011;50709;52.648;4.764;2022-10-14T04:17:33;19.88;;;11.57;;
64387;SDS011;50709;52.648;4.764;2022-10-14T04:19:58;20.85;;;12.73;;
64387;SDS011;50709;52.648;4.764;2022-10-14T04:22:23;20.25;;;11.63;;
64387;SDS011;50709;52.648;4.764;2022-10-14T04:24:49;19.20;;;11.40;;
64387;SDS011;50709;52.648;4.764;2022-10-14T04:27:15;20.52;;;12.55;;
64387;SDS011;50709;52.648;4.764;2022-10-14T04:29:41;24.75;;;14.75;;
64387;SDS011;50709;52.648;4.764;2022-10-14T04:32:06;19.23;;;11.85;;
64387;SDS011;50709;52.648;4.764;2022-10-14T04:34:31;22.30;;;12.75;;
64387;SDS011;50709;52.648;4.764;2022-10-14T04:36:57;21.65;;;11.75;;
64387;SDS011;50709;52.648;4.764;2022-10-14T04:39:22;17.70;;;11.10;;
64387;SDS011;50709;52.648;4.764;2022-10-14T04:41:47;26.65;;;14.00;;
64387;SDS011;50709;52.648;4.764;2022-10-14T04:44:13;26.27;;;14.52;;
64387;SDS011;50709;52.648;4.764;2022-10-14T04:46:38;25.55;;;13.73;;
64387;SDS011;50709;52.648;4.764;2022-10-14T04:49:03;25.55;;;14.40;;
64387;SDS011;50709;52.648;4.764;2022-10-14T04:51:29;25.17;;;13.98;;
64387;SDS011;50709;52.648;4.764;2022-10-14T04:53:54;26.15;;;13.88;;
64387;SDS011;50709;52.648;4.764;2022-10-14T04:56:21;23.13;;;12.85;;
64387;SDS011;50709;52.648;4.764;2022-10-14T04:58:46;24.35;;;13.07;;
64387;SDS011;50709;52.648;4.764;2022-10-14T05:01:12;23.25;;;12.73;;
64387;SDS011;50709;52.648;4.764;2022-10-14T05:03:37;27.45;;;14.80;;
64387;SDS011;50709;52.648;4.764;2022-10-14T05:06:02;27.15;;;13.77;;
64387;SDS011;50709;52.648;4.764;2022-10-14T05:08:28;25.95;;;13.82;;
64387;SDS011;50709;52.648;4.764;2022-10-14T05:10:53;25.65;;;13.23;;
64387;SDS011;50709;52.648;4.764;2022-10-14T05:13:18;27.02;;;13.27;;
64387;SDS011;50709;52.648;4.764;2022-10-14T05:15:44;24.30;;;13.00;;
64387;SDS011;50709;52.648;4.764;2022-10-14T05:18:10;23.48;;;13.32;;
64387;SDS011;50709;52.648;4.764;2022-10-14T05:20:36;28.05;;;14.05;;
64387;SDS011;50709;52.648;4.764;2022-10-14T05:23:02;28.52;;;14.27;;
64387;SDS011;50709;52.648;4.764;2022-10-14T05:25:28;25.65;;;12.75;;
64387;SDS011;50709;52.648;4.764;2022-10-14T05:27:53;26.52;;;13.27;;
64387;SDS011;50709;52.648;4.764;2022-10-14T05:30:18;26.60;;;15.13;;
64387;SDS011;50709;52.648;4.764;2022-10-14T05:32:44;28.63;;;14.65;;
64387;SDS011;50709;52.648;4.764;2022-10-14T05:35:09;27.20;;;13.10;;
64387;SDS011;50709;52.648;4.764;2022-10-14T05:37:35;30.63;;;14.45;;
64387;SDS011;50709;52.648;4.764;2022-10-14T05:40:00;30.52;;;16.08;;
64387;SDS011;50709;52.648;4.764;2022-10-14T05:42:25;27.48;;;13.95;;
64387;SDS011;50709;52.648;4.764;2022-10-14T05:44:51;30.30;;;13.73;;
64387;SDS011;50709;52.648;4.764;2022-10-14T05:47:16;33.15;;;15.80;;
64387;SDS011;50709;52.648;4.764;2022-10-14T05:49:41;30.70;;;13.75;;
64387;SDS011;50709;52.648;4.764;2022-10-14T05:52:07;28.90;;;14.07;;
64387;SDS011;50709;52.648;4.764;2022-10-14T05:54:32;31.65;;;14.52;;
64387;SDS011;50709;52.648;4.764;2022-10-14T05:56:57;27.35;;;13.75;;
64387;SDS011;50709;52.648;4.764;2022-10-14T05:59:23;30.33;;;13.85;;
64387;SDS011;50709;52.648;4.764;2022-10-14T06:01:48;25.30;;;12.27;;
64387;SDS011;50709;52.648;4.764;2022-10-14T06:04:17;24.60;;;12.32;;
64387;SDS011;50709;52.648;4.764;2022-10-14T06:06:44;25.30;;;12.52;;
64387;SDS011;50709;52.648;4.764;2022-10-14T06:09:09;22.02;;;12.07;;
64387;SDS011;50709;52.648;4.764;2022-10-14T06:11:35;22.75;;;11.50;;
64387;SDS011;50709;52.648;4.764;2022-10-14T06:14:00;24.65;;;12.70;;
64387;SDS011;50709;52.648;4.764;2022-10-14T06:16:25;20.93;;;11.20;;
64387;SDS011;50709;52.648;4.764;2022-10-14T06:18:51;21.77;;;11.52;;
64387;SDS011;50709;52.648;4.764;2022-10-14T06:21:16;20.90;;;12.27;;
64387;SDS011;50709;52.648;4.764;2022-10-14T06:23:41;22.80;;;11.85;;
64387;SDS011;50709;52.648;4.764;2022-10-14T06:26:07;21.08;;;11.73;;
64387;SDS011;50709;52.648;4.764;2022-10-14T06:28:33;22.70;;;11.18;;
64387;SDS011;50709;52.648;4.764;2022-10-14T06:30:59;20.88;;;11.38;;
64387;SDS011;50709;52.648;4.764;2022-10-14T06:33:26;22.38;;;11.75;;
64387;SDS011;50709;52.648;4.764;2022-10-14T06:35:52;22.75;;;11.80;;
64387;SDS011;50709;52.648;4.764;2022-10-14T06:38:17;22.75;;;11.85;;
64387;SDS011;50709;52.648;4.764;2022-10-14T06:40:43;19.65;;;10.63;;
64387;SDS011;50709;52.648;4.764;2022-10-14T06:43:08;21.98;;;10.73;;
64387;SDS011;50709;52.648;4.764;2022-10-14T06:45:33;22.95;;;11.35;;
64387;SDS011;50709;52.648;4.764;2022-10-14T06:47:59;28.60;;;12.85;;
64387;SDS011;50709;52.648;4.764;2022-10-14T06:50:24;22.27;;;12.27;;
64387;SDS011;50709;52.648;4.764;2022-10-14T06:52:50;21.40;;;11.07;;
64387;SDS011;50709;52.648;4.764;2022-10-14T06:55:16;19.67;;;10.30;;
64387;SDS011;50709;52.648;4.764;2022-10-14T06:57:41;28.15;;;12.85;;
64387;SDS011;50709;52.648;4.764;2022-10-14T07:00:07;26.52;;;12.23;;
64387;SDS011;50709;52.648;4.764;2022-10-14T07:02:32;27.83;;;12.48;;
64387;SDS011;50709;52.648;4.764;2022-10-14T07:04:58;24.60;;;12.23;;
64387;SDS011;50709;52.648;4.764;2022-10-14T07:07:23;42.00;;;19.35;;
64387;SDS011;50709;52.648;4.764;2022-10-14T07:09:48;26.65;;;13.88;;
64387;SDS011;50709;52.648;4.764;2022-10-14T07:12:14;22.58;;;11.65;;
64387;SDS011;50709;52.648;4.764;2022-10-14T07:14:39;22.77;;;11.55;;
64387;SDS011;50709;52.648;4.764;2022-10-14T07:17:06;23.67;;;11.85;;
64387;SDS011;50709;52.648;4.764;2022-10-14T07:19:32;21.90;;;10.68;;
64387;SDS011;50709;52.648;4.764;2022-10-14T07:21:58;19.33;;;10.15;;
64387;SDS011;50709;52.648;4.764;2022-10-14T07:24:23;24.00;;;10.90;;
64387;SDS011;50709;52.648;4.764;2022-10-14T07:26:48;24.10;;;12.20;;
64387;SDS011;50709;52.648;4.764;2022-10-14T07:29:13;21.50;;;10.70;;
64387;SDS011;50709;52.648;4.764;2022-10-14T07:31:39;20.33;;;10.80;;
64387;SDS011;50709;52.648;4.764;2022-10-14T07:34:04;15.82;;;8.73;;
64387;SDS011;50709;52.648;4.764;2022-10-14T07:36:29;18.77;;;9.38;;
64387;SDS011;50709;52.648;4.764;2022-10-14T07:38:55;18.25;;;9.88;;
64387;SDS011;50709;52.648;4.764;2022-10-14T07:41:21;19.98;;;9.75;;
64387;SDS011;50709;52.648;4.764;2022-10-14T07:43:49;21.25;;;9.48;;
64387;SDS011;50709;52.648;4.764;2022-10-14T07:46:18;13.57;;;8.13;;
64387;SDS011;50709;52.648;4.764;2022-10-14T07:48:53;18.05;;;8.30;;
64387;SDS011;50709;52.648;4.764;2022-10-14T07:51:22;13.52;;;7.75;;
64387;SDS011;50709;52.648;4.764;2022-10-14T07:53:48;12.98;;;7.05;;
64387;SDS011;50709;52.648;4.764;2022-10-14T07:56:14;16.60;;;7.97;;
64387;SDS011;50709;52.648;4.764;2022-10-14T07:58:39;22.38;;;8.98;;
64387;SDS011;50709;52.648;4.764;2022-10-14T08:01:05;17.33;;;8.27;;
64387;SDS011;50709;52.648;4.764;2022-10-14T08:03:30;22.48;;;9.27;;
64387;SDS011;50709;52.648;4.764;2022-10-14T08:05:59;32.58;;;8.90;;
64387;SDS011;50709;52.648;4.764;2022-10-14T08:08:25;14.48;;;7.15;;
64387;SDS011;50709;52.648;4.764;2022-10-14T08:11:14;15.05;;;7.93;;
64387;SDS011;50709;52.648;4.764;2022-10-14T08:13:39;12.68;;;6.85;;
64387;SDS011;50709;52.648;4.764;2022-10-14T08:16:19;14.15;;;6.93;;
64387;SDS011;50709;52.648;4.764;2022-10-14T08:18:47;13.75;;;7.38;;
64387;SDS011;50709;52.648;4.764;2022-10-14T08:21:13;20.00;;;8.73;;
64387;SDS011;50709;52.648;4.764;2022-10-14T08:23:40;13.70;;;7.38;;
64387;SDS011;50709;52.648;4.764;2022-10-14T08:28:54;12.98;;;7.53;;
64387;SDS011;50709;52.648;4.764;2022-10-14T08:31:21;15.30;;;7.35;;
64387;SDS011;50709;52.648;4.764;2022-10-14T08:33:46;11.93;;;6.43;;
64387;SDS011;50709;52.648;4.764;2022-10-14T08:36:12;14.18;;;7.22;;
64387;SDS011;50709;52.648;4.764;2022-10-14T08:38:37;13.93;;;7.40;;
64387;SDS011;50709;52.648;4.764;2022-10-14T08:43:47;12.60;;;6.80;;
64387;SDS011;50709;52.648;4.764;2022-10-14T08:46:23;11.15;;;6.45;;
64387;SDS011;50709;52.648;4.764;2022-10-14T08:48:59;12.23;;;6.65;;
64387;SDS011;50709;52.648;4.764;2022-10-14T08:51:30;10.07;;;6.10;;
64387;SDS011;50709;52.648;4.764;2022-10-14T08:53:58;10.63;;;5.97;;
64387;SDS011;50709;52.648;4.764;2022-10-14T08:56:30;10.38;;;6.28;;
64387;SDS011;50709;52.648;4.764;2022-10-14T08:58:59;11.57;;;6.15;;
64387;SDS011;50709;52.648;4.764;2022-10-14T09:01:31;10.52;;;5.65;;
64387;SDS011;50709;52.648;4.764;2022-10-14T09:03:59;10.43;;;6.15;;
64387;SDS011;50709;52.648;4.764;2022-10-14T09:06:30;9.27;;;5.50;;
64387;SDS011;50709;52.648;4.764;2022-10-14T09:08:59;10.60;;;5.90;;
64387;SDS011;50709;52.648;4.764;2022-10-14T09:11:40;9.18;;;5.50;;
64387;SDS011;50709;52.648;4.764;2022-10-14T09:14:08;9.23;;;6.00;;
64387;SDS011;50709;52.648;4.764;2022-10-14T09:16:41;8.85;;;5.07;;
64387;SDS011;50709;52.648;4.764;2022-10-14T09:19:31;10.02;;;5.90;;
64387;SDS011;50709;52.648;4.764;2022-10-14T09:21:56;8.77;;;5.00;;
64387;SDS011;50709;52.648;4.764;2022-10-14T09:29:32;8.93;;;5.28;;
64387;SDS011;50709;52.648;4.764;2022-10-14T09:32:07;7.22;;;4.90;;
64387;SDS011;50709;52.648;4.764;2022-10-14T09:34:40;10.50;;;5.40;;
64387;SDS011;50709;52.648;4.764;2022-10-14T09:39:50;8.20;;;5.00;;
64387;SDS011;50709;52.648;4.764;2022-10-14T09:42:22;7.00;;;4.53;;
64387;SDS011;50709;52.648;4.764;2022-10-14T09:45:05;7.80;;;5.00;;
64387;SDS011;50709;52.648;4.764;2022-10-14T09:47:40;6.95;;;4.90;;
64387;SDS011;50709;52.648;4.764;2022-10-14T09:50:31;10.40;;;5.18;;
64387;SDS011;50709;52.648;4.764;2022-10-14T09:53:06;16.65;;;5.97;;
64387;SDS011;50709;52.648;4.764;2022-10-14T09:55:46;13.52;;;5.13;;
64387;SDS011;50709;52.648;4.764;2022-10-14T09:58:16;7.55;;;4.32;;
64387;SDS011;50709;52.648;4.764;2022-10-14T10:00:47;8.68;;;4.80;;
64387;SDS011;50709;52.648;4.764;2022-10-14T10:03:25;12.43;;;5.40;;
64387;SDS011;50709;52.648;4.764;2022-10-14T10:06:06;9.45;;;5.75;;
64387;SDS011;50709;52.648;4.764;2022-10-14T10:08:34;9.07;;;5.35;;
64387;SDS011;50709;52.648;4.764;2022-10-14T10:13:37;11.35;;;5.70;;
64387;SDS011;50709;52.648;4.764;2022-10-14T10:16:17;9.90;;;6.05;;
64387;SDS011;50709;52.648;4.764;2022-10-14T10:18:44;11.52;;;6.30;;
64387;SDS011;50709;52.648;4.764;2022-10-14T10:21:17;10.77;;;5.90;;
64387;SDS011;50709;52.648;4.764;2022-10-14T10:23:49;9.30;;;5.55;;
64387;SDS011;50709;52.648;4.764;2022-10-14T10:26:19;9.85;;;5.90;;
64387;SDS011;50709;52.648;4.764;2022-10-14T10:28:49;9.93;;;5.20;;
64387;SDS011;50709;52.648;4.764;2022-10-14T10:36:36;9.30;;;5.40;;
64387;SDS011;50709;52.648;4.764;2022-10-14T10:39:12;9.38;;;5.40;;
64387;SDS011;50709;52.648;4.764;2022-10-14T11:01:08;11.27;;;7.57;;
64387;SDS011;50709;52.648;4.764;2022-10-14T11:03:58;9.98;;;5.80;;
64387;SDS011;50709;52.648;4.764;2022-10-14T11:15:29;9.00;;;5.43;;
64387;SDS011;50709;52.648;4.764;2022-10-14T11:18:02;9.02;;;5.45;;
64387;SDS011;50709;52.648;4.764;2022-10-14T11:20:58;10.68;;;6.82;;
64387;SDS011;50709;52.648;4.764;2022-10-14T11:23:47;11.68;;;6.50;;
64387;SDS011;50709;52.648;4.764;2022-10-14T11:32:00;10.57;;;5.93;;
64387;SDS011;50709;52.648;4.764;2022-10-14T11:39:57;10.63;;;6.43;;
64387;SDS011;50709;52.648;4.764;2022-10-14T11:45:18;11.55;;;6.15;;
64387;SDS011;50709;52.648;4.764;2022-10-14T11:49:00;9.48;;;5.45;;
64387;SDS011;50709;52.648;4.764;2022-10-14T11:51:01;8.65;;;5.10;;
64387;SDS011;50709;52.648;4.764;2022-10-14T11:53:42;7.28;;;4.78;;
64387;SDS011;50709;52.648;4.764;2022-10-14T11:59:18;7.70;;;4.47;;
64387;SDS011;50709;52.648;4.764;2022-10-14T12:01:45;6.57;;;4.30;;
64387;SDS011;50709;52.648;4.764;2022-10-14T12:04:22;6.93;;;4.25;;
64387;SDS011;50709;52.648;4.764;2022-10-14T12:06:59;6.53;;;3.90;;
64387;SDS011;50709;52.648;4.764;2022-10-14T12:12:14;6.57;;;4.03;;
64387;SDS011;50709;52.648;4.764;2022-10-14T12:14:46;6.15;;;3.88;;
64387;SDS011;50709;52.648;4.764;2022-10-14T12:22:50;6.10;;;3.75;;
64387;SDS011;50709;52.648;4.764;2022-10-14T12:25:19;5.50;;;3.80;;
64387;SDS011;50709;52.648;4.764;2022-10-14T12:27:47;6.18;;;3.85;;
64387;SDS011;50709;52.648;4.764;2022-10-14T12:30:55;5.57;;;3.72;;
64387;SDS011;50709;52.648;4.764;2022-10-14T12:33:04;7.82;;;4.45;;
64387;SDS011;50709;52.648;4.764;2022-10-14T12:38:10;7.72;;;4.28;;
64387;SDS011;50709;52.648;4.764;2022-10-14T12:40:36;7.50;;;4.20;;
64387;SDS011;50709;52.648;4.764;2022-10-14T12:43:02;7.28;;;4.63;;
64387;SDS011;50709;52.648;4.764;2022-10-14T12:45:37;7.10;;;4.75;;
64387;SDS011;50709;52.648;4.764;2022-10-14T12:48:21;6.30;;;4.10;;
64387;SDS011;50709;52.648;4.764;2022-10-14T12:50:50;6.93;;;4.80;;
64387;SDS011;50709;52.648;4.764;2022-10-14T12:53:22;8.67;;;4.47;;
64387;SDS011;50709;52.648;4.764;2022-10-14T12:55:54;8.10;;;4.85;;
64387;SDS011;50709;52.648;4.764;2022-10-14T13:01:25;6.18;;;3.80;;
64387;SDS011;50709;52.648;4.764;2022-10-14T13:03:55;6.80;;;5.20;;
64387;SDS011;50709;52.648;4.764;2022-10-14T13:06:33;6.82;;;4.55;;
64387;SDS011;50709;52.648;4.764;2022-10-14T13:11:37;7.47;;;4.38;;
64387;SDS011;50709;52.648;4.764;2022-10-14T13:14:18;7.10;;;4.00;;
64387;SDS011;50709;52.648;4.764;2022-10-14T13:22:01;6.72;;;4.65;;
64387;SDS011;50709;52.648;4.764;2022-10-14T13:24:46;6.78;;;4.28;;
64387;SDS011;50709;52.648;4.764;2022-10-14T13:27:26;4.97;;;3.33;;
64387;SDS011;50709;52.648;4.764;2022-10-14T13:30:15;5.20;;;3.70;;
64387;SDS011;50709;52.648;4.764;2022-10-14T13:33:04;5.55;;;3.42;;
64387;SDS011;50709;52.648;4.764;2022-10-14T13:35:48;5.70;;;3.15;;
64387;SDS011;50709;52.648;4.764;2022-10-14T13:38:22;6.30;;;3.28;;
64387;SDS011;50709;52.648;4.764;2022-10-14T13:40:49;5.70;;;3.00;;
64387;SDS011;50709;52.648;4.764;2022-10-14T13:43:27;5.75;;;3.40;;
64387;SDS011;50709;52.648;4.764;2022-10-14T13:50:56;4.30;;;2.88;;
64387;SDS011;50709;52.648;4.764;2022-10-14T13:53:34;5.93;;;3.75;;
64387;SDS011;50709;52.648;4.764;2022-10-14T13:55:59;5.28;;;2.95;;
64387;SDS011;50709;52.648;4.764;2022-10-14T13:58:25;4.57;;;3.45;;
64387;SDS011;50709;52.648;4.764;2022-10-14T14:00:58;4.75;;;3.30;;
64387;SDS011;50709;52.648;4.764;2022-10-14T14:03:36;4.78;;;3.33;;
64387;SDS011;50709;52.648;4.764;2022-10-14T14:06:12;4.78;;;3.22;;
64387;SDS011;50709;52.648;4.764;2022-10-14T14:08:53;4.72;;;3.33;;
64387;SDS011;50709;52.648;4.764;2022-10-14T14:11:25;4.68;;;3.20;;
64387;SDS011;50709;52.648;4.764;2022-10-14T14:16:28;3.28;;;2.60;;
64387;SDS011;50709;52.648;4.764;2022-10-14T14:18:57;4.57;;;2.97;;
64387;SDS011;50709;52.648;4.764;2022-10-14T14:21:24;5.00;;;2.80;;
64387;SDS011;50709;52.648;4.764;2022-10-14T14:23:51;4.07;;;2.75;;
64387;SDS011;50709;52.648;4.764;2022-10-14T14:26:19;5.03;;;2.90;;
64387;SDS011;50709;52.648;4.764;2022-10-14T14:28:47;5.35;;;3.03;;
64387;SDS011;50709;52.648;4.764;2022-10-14T14:31:13;4.68;;;3.00;;
64387;SDS011;50709;52.648;4.764;2022-10-14T14:33:42;4.70;;;3.30;;
64387;SDS011;50709;52.648;4.764;2022-10-14T14:36:10;7.22;;;3.53;;
64387;SDS011;50709;52.648;4.764;2022-10-14T14:38:44;4.93;;;2.88;;
64387;SDS011;50709;52.648;4.764;2022-10-14T14:41:18;4.10;;;2.90;;
64387;SDS011;50709;52.648;4.764;2022-10-14T14:43:52;7.00;;;3.00;;
64387;SDS011;50709;52.648;4.764;2022-10-14T14:46:23;4.88;;;3.20;;
64387;SDS011;50709;52.648;4.764;2022-10-14T14:49:12;4.35;;;2.90;;
64387;SDS011;50709;52.648;4.764;2022-10-14T14:51:40;5.22;;;2.83;;
64387;SDS011;50709;52.648;4.764;2022-10-14T14:54:11;3.53;;;2.53;;
64387;SDS011;50709;52.648;4.764;2022-10-14T14:56:42;4.28;;;2.58;;
64387;SDS011;50709;52.648;4.764;2022-10-14T14:59:18;5.55;;;3.20;;
64387;SDS011;50709;52.648;4.764;2022-10-14T15:01:54;6.13;;;3.65;;
64387;SDS011;50709;52.648;4.764;2022-10-14T15:04:21;5.85;;;3.35;;
64387;SDS011;50709;52.648;4.764;2022-10-14T15:12:06;6.80;;;3.53;;
64387;SDS011;50709;52.648;4.764;2022-10-14T15:17:35;4.47;;;3.30;;
64387;SDS011;50709;52.648;4.764;2022-10-14T15:32:49;4.70;;;3.53;;
64387;SDS011;50709;52.648;4.764;2022-10-14T15:35:17;5.40;;;3.83;;
64387;SDS011;50709;52.648;4.764;2022-10-14T15:37:44;7.00;;;3.95;;
64387;SDS011;50709;52.648;4.764;2022-10-14T15:42:37;5.68;;;3.75;;
64387;SDS011;50709;52.648;4.764;2022-10-14T15:45:02;5.88;;;3.90;;
64387;SDS011;50709;52.648;4.764;2022-10-14T15:47:28;8.63;;;3.72;;
64387;SDS011;50709;52.648;4.764;2022-10-14T15:49:54;7.60;;;3.78;;
64387;SDS011;50709;52.648;4.764;2022-10-14T15:52:20;6.20;;;3.65;;
64387;SDS011;50709;52.648;4.764;2022-10-14T15:54:45;6.65;;;4.38;;
64387;SDS011;50709;52.648;4.764;2022-10-14T15:57:11;6.03;;;3.55;;
64387;SDS011;50709;52.648;4.764;2022-10-14T15:59:37;6.28;;;3.22;;
64387;SDS011;50709;52.648;4.764;2022-10-14T16:02:16;5.55;;;3.58;;
64387;SDS011;50709;52.648;4.764;2022-10-14T16:04:44;5.50;;;3.30;;
64387;SDS011;50709;52.648;4.764;2022-10-14T16:07:12;5.05;;;3.15;;
64387;SDS011;50709;52.648;4.764;2022-10-14T16:09:38;5.25;;;3.50;;
64387;SDS011;50709;52.648;4.764;2022-10-14T16:12:03;6.80;;;4.00;;
64387;SDS011;50709;52.648;4.764;2022-10-14T16:14:29;5.20;;;3.28;;
64387;SDS011;50709;52.648;4.764;2022-10-14T16:16:54;6.28;;;3.40;;
64387;SDS011;50709;52.648;4.764;2022-10-14T16:19:20;6.65;;;3.35;;
64387;SDS011;50709;52.648;4.764;2022-10-14T16:21:46;4.93;;;3.50;;
64387;SDS011;50709;52.648;4.764;2022-10-14T16:24:14;6.22;;;3.38;;
64387;SDS011;50709;52.648;4.764;2022-10-14T16:26:42;7.40;;;4.38;;
64387;SDS011;50709;52.648;4.764;2022-10-14T16:29:07;9.43;;;4.47;;
64387;SDS011;50709;52.648;4.764;2022-10-14T16:31:34;5.20;;;3.50;;
64387;SDS011;50709;52.648;4.764;2022-10-14T16:34:00;6.13;;;3.92;;
64387;SDS011;50709;52.648;4.764;2022-10-14T16:36:26;6.88;;;4.78;;
64387;SDS011;50709;52.648;4.764;2022-10-14T16:38:51;6.97;;;4.70;;
64387;SDS011;50709;52.648;4.764;2022-10-14T16:41:17;6.28;;;4.35;;
64387;SDS011;50709;52.648;4.764;2022-10-14T16:43:42;7.35;;;4.70;;
64387;SDS011;50709;52.648;4.764;2022-10-14T16:46:08;8.60;;;5.22;;
64387;SDS011;50709;52.648;4.764;2022-10-14T16:48:36;7.65;;;5.03;;
64387;SDS011;50709;52.648;4.764;2022-10-14T16:51:01;8.52;;;5.90;;
64387;SDS011;50709;52.648;4.764;2022-10-14T16:53:28;6.68;;;4.85;;
64387;SDS011;50709;52.648;4.764;2022-10-14T16:56:11;7.90;;;5.25;;
64387;SDS011;50709;52.648;4.764;2022-10-14T16:58:55;8.95;;;5.68;;
64387;SDS011;50709;52.648;4.764;2022-10-14T17:01:22;7.40;;;5.18;;
64387;SDS011;50709;52.648;4.764;2022-10-14T17:03:47;9.27;;;5.75;;
64387;SDS011;50709;52.648;4.764;2022-10-14T17:06:13;8.70;;;5.53;;
64387;SDS011;50709;52.648;4.764;2022-10-14T17:08:39;7.43;;;5.38;;
64387;SDS011;50709;52.648;4.764;2022-10-14T17:11:05;6.80;;;4.85;;
64387;SDS011;50709;52.648;4.764;2022-10-14T17:13:31;10.95;;;6.03;;